sensor_id;sensor_type;location;lat;lon;timestamp;P1;durP1;ratioP1;P2;durP2;ratioP2
25439;SDS011;13365;52.208;5.488;2023-12-04T00:00:42;32.25;;;12.55;;
25439;SDS011;13365;52.208;5.488;2023-12-04T00:03:08;29.70;;;12.93;;
25439;SDS011;13365;52.208;5.488;2023-12-04T00:05:33;25.83;;;12.32;;
25439;SDS011;13365;52.208;5.488;2023-12-04T00:07:59;25.90;;;11.38;;
25439;SDS011;13365;52.208;5.488;2023-12-04T00:10:25;30.73;;;12.57;;
25439;SDS011;13365;52.208;5.488;2023-12-04T00:12:50;28.27;;;12.25;;
25439;SDS011;13365;52.208;5.488;2023-12-04T00:15:16;30.70;;;13.35;;
25439;SDS011;13365;52.208;5.488;2023-12-04T00:17:44;28.40;;;12.25;;
25439;SDS011;13365;52.208;5.488;2023-12-04T00:20:10;28.20;;;13.43;;
25439;SDS011;13365;52.208;5.488;2023-12-04T00:22:36;27.02;;;12.88;;
25439;SDS011;13365;52.208;5.488;2023-12-04T00:25:03;31.45;;;12.38;;
25439;SDS011;13365;52.208;5.488;2023-12-04T00:27:29;29.25;;;12.15;;
25439;SDS011;13365;52.208;5.488;2023-12-04T00:29:55;30.90;;;12.60;;
25439;SDS011;13365;52.208;5.488;2023-12-04T00:32:21;31.48;;;13.30;;
25439;SDS011;13365;52.208;5.488;2023-12-04T00:34:47;28.25;;;12.93;;
25439;SDS011;13365;52.208;5.488;2023-12-04T00:37:12;30.52;;;13.05;;
25439;SDS011;13365;52.208;5.488;2023-12-04T00:39:38;30.30;;;13.07;;
25439;SDS011;13365;52.208;5.488;2023-12-04T00:42:03;37.10;;;14.48;;
25439;SDS011;13365;52.208;5.488;2023-12-04T00:44:30;28.25;;;13.93;;
25439;SDS011;13365;52.208;5.488;2023-12-04T00:46:55;30.60;;;13.70;;
25439;SDS011;13365;52.208;5.488;2023-12-04T00:49:21;30.70;;;14.45;;
25439;SDS011;13365;52.208;5.488;2023-12-04T00:51:46;32.92;;;14.45;;
25439;SDS011;13365;52.208;5.488;2023-12-04T00:54:12;27.15;;;12.63;;
25439;SDS011;13365;52.208;5.488;2023-12-04T00:56:38;29.23;;;13.80;;
25439;SDS011;13365;52.208;5.488;2023-12-04T00:59:04;29.35;;;12.75;;
25439;SDS011;13365;52.208;5.488;2023-12-04T01:01:31;33.25;;;14.02;;
25439;SDS011;13365;52.208;5.488;2023-12-04T01:03:57;27.92;;;12.63;;
25439;SDS011;13365;52.208;5.488;2023-12-04T01:06:23;33.40;;;13.90;;
25439;SDS011;13365;52.208;5.488;2023-12-04T01:08:50;33.15;;;14.07;;
25439;SDS011;13365;52.208;5.488;2023-12-04T01:11:17;32.40;;;14.48;;
25439;SDS011;13365;52.208;5.488;2023-12-04T01:13:44;30.08;;;14.10;;
25439;SDS011;13365;52.208;5.488;2023-12-04T01:16:10;30.17;;;14.90;;
25439;SDS011;13365;52.208;5.488;2023-12-04T01:18:35;30.35;;;13.52;;
25439;SDS011;13365;52.208;5.488;2023-12-04T01:21:01;29.77;;;14.57;;
25439;SDS011;13365;52.208;5.488;2023-12-04T01:23:27;35.55;;;13.85;;
25439;SDS011;13365;52.208;5.488;2023-12-04T01:25:53;30.70;;;14.82;;
25439;SDS011;13365;52.208;5.488;2023-12-04T01:28:18;34.28;;;14.30;;
25439;SDS011;13365;52.208;5.488;2023-12-04T01:30:44;28.75;;;13.40;;
25439;SDS011;13365;52.208;5.488;2023-12-04T01:33:10;34.42;;;14.40;;
25439;SDS011;13365;52.208;5.488;2023-12-04T01:35:35;28.38;;;12.90;;
25439;SDS011;13365;52.208;5.488;2023-12-04T01:38:01;30.35;;;12.90;;
25439;SDS011;13365;52.208;5.488;2023-12-04T01:40:27;33.47;;;14.18;;
25439;SDS011;13365;52.208;5.488;2023-12-04T01:42:52;33.25;;;14.18;;
25439;SDS011;13365;52.208;5.488;2023-12-04T01:45:18;26.05;;;13.45;;
25439;SDS011;13365;52.208;5.488;2023-12-04T01:47:44;29.92;;;13.68;;
25439;SDS011;13365;52.208;5.488;2023-12-04T01:50:10;30.65;;;14.45;;
25439;SDS011;13365;52.208;5.488;2023-12-04T01:52:37;29.75;;;14.07;;
25439;SDS011;13365;52.208;5.488;2023-12-04T01:55:04;30.92;;;14.18;;
25439;SDS011;13365;52.208;5.488;2023-12-04T01:57:32;28.40;;;14.18;;
25439;SDS011;13365;52.208;5.488;2023-12-04T01:59:57;29.75;;;13.90;;
25439;SDS011;13365;52.208;5.488;2023-12-04T02:02:23;33.08;;;14.15;;
25439;SDS011;13365;52.208;5.488;2023-12-04T02:04:49;30.80;;;14.20;;
25439;SDS011;13365;52.208;5.488;2023-12-04T02:07:15;33.78;;;14.43;;
25439;SDS011;13365;52.208;5.488;2023-12-04T02:09:40;31.80;;;13.02;;
25439;SDS011;13365;52.208;5.488;2023-12-04T02:12:06;37.20;;;15.15;;
25439;SDS011;13365;52.208;5.488;2023-12-04T02:14:32;29.38;;;13.13;;
25439;SDS011;13365;52.208;5.488;2023-12-04T02:16:57;28.08;;;13.63;;
25439;SDS011;13365;52.208;5.488;2023-12-04T02:19:25;29.20;;;13.05;;
25439;SDS011;13365;52.208;5.488;2023-12-04T02:21:51;35.60;;;13.93;;
25439;SDS011;13365;52.208;5.488;2023-12-04T02:24:17;29.92;;;15.07;;
25439;SDS011;13365;52.208;5.488;2023-12-04T02:26:46;36.97;;;13.23;;
25439;SDS011;13365;52.208;5.488;2023-12-04T02:29:19;28.38;;;13.77;;
25439;SDS011;13365;52.208;5.488;2023-12-04T02:31:51;30.33;;;13.73;;
25439;SDS011;13365;52.208;5.488;2023-12-04T02:34:18;30.92;;;12.82;;
25439;SDS011;13365;52.208;5.488;2023-12-04T02:36:45;31.02;;;13.25;;
25439;SDS011;13365;52.208;5.488;2023-12-04T02:39:12;27.77;;;12.63;;
25439;SDS011;13365;52.208;5.488;2023-12-04T02:41:37;25.88;;;12.40;;
25439;SDS011;13365;52.208;5.488;2023-12-04T02:44:03;30.55;;;14.32;;
25439;SDS011;13365;52.208;5.488;2023-12-04T02:46:29;27.60;;;13.23;;
25439;SDS011;13365;52.208;5.488;2023-12-04T02:48:54;31.70;;;13.57;;
25439;SDS011;13365;52.208;5.488;2023-12-04T02:51:20;26.92;;;12.48;;
25439;SDS011;13365;52.208;5.488;2023-12-04T02:53:45;31.40;;;13.30;;
25439;SDS011;13365;52.208;5.488;2023-12-04T02:56:11;25.92;;;12.38;;
25439;SDS011;13365;52.208;5.488;2023-12-04T02:58:36;28.00;;;13.55;;
25439;SDS011;13365;52.208;5.488;2023-12-04T03:01:02;33.78;;;13.43;;
25439;SDS011;13365;52.208;5.488;2023-12-04T03:03:28;27.00;;;13.25;;
25439;SDS011;13365;52.208;5.488;2023-12-04T03:05:53;26.00;;;12.10;;
25439;SDS011;13365;52.208;5.488;2023-12-04T03:08:19;26.48;;;11.70;;
25439;SDS011;13365;52.208;5.488;2023-12-04T03:10:44;27.17;;;12.00;;
25439;SDS011;13365;52.208;5.488;2023-12-04T03:13:10;28.25;;;11.82;;
25439;SDS011;13365;52.208;5.488;2023-12-04T03:15:35;25.23;;;11.98;;
25439;SDS011;13365;52.208;5.488;2023-12-04T03:18:01;26.80;;;11.25;;
25439;SDS011;13365;52.208;5.488;2023-12-04T03:20:27;27.25;;;12.55;;
25439;SDS011;13365;52.208;5.488;2023-12-04T03:22:53;27.50;;;11.88;;
25439;SDS011;13365;52.208;5.488;2023-12-04T03:25:18;26.67;;;12.52;;
25439;SDS011;13365;52.208;5.488;2023-12-04T03:27:44;25.98;;;11.45;;
25439;SDS011;13365;52.208;5.488;2023-12-04T03:30:09;31.15;;;12.80;;
25439;SDS011;13365;52.208;5.488;2023-12-04T03:32:35;28.55;;;12.38;;
25439;SDS011;13365;52.208;5.488;2023-12-04T03:35:01;28.10;;;12.25;;
25439;SDS011;13365;52.208;5.488;2023-12-04T03:37:26;29.30;;;12.43;;
25439;SDS011;13365;52.208;5.488;2023-12-04T03:39:52;25.88;;;11.90;;
25439;SDS011;13365;52.208;5.488;2023-12-04T03:42:18;24.38;;;11.93;;
25439;SDS011;13365;52.208;5.488;2023-12-04T03:44:43;22.85;;;11.02;;
25439;SDS011;13365;52.208;5.488;2023-12-04T03:47:09;29.17;;;11.35;;
25439;SDS011;13365;52.208;5.488;2023-12-04T03:49:34;25.88;;;11.85;;
25439;SDS011;13365;52.208;5.488;2023-12-04T03:52:01;25.50;;;11.35;;
25439;SDS011;13365;52.208;5.488;2023-12-04T03:54:27;26.05;;;12.05;;
25439;SDS011;13365;52.208;5.488;2023-12-04T03:56:53;21.85;;;10.48;;
25439;SDS011;13365;52.208;5.488;2023-12-04T03:59:18;25.38;;;11.27;;
25439;SDS011;13365;52.208;5.488;2023-12-04T04:01:44;23.40;;;10.75;;
25439;SDS011;13365;52.208;5.488;2023-12-04T04:04:09;25.77;;;10.25;;
25439;SDS011;13365;52.208;5.488;2023-12-04T04:06:35;24.23;;;10.55;;
25439;SDS011;13365;52.208;5.488;2023-12-04T04:09:03;24.33;;;10.95;;
25439;SDS011;13365;52.208;5.488;2023-12-04T04:11:29;25.23;;;11.13;;
25439;SDS011;13365;52.208;5.488;2023-12-04T04:13:55;22.92;;;10.63;;
25439;SDS011;13365;52.208;5.488;2023-12-04T04:16:21;21.17;;;10.68;;
25439;SDS011;13365;52.208;5.488;2023-12-04T04:18:46;22.65;;;10.75;;
25439;SDS011;13365;52.208;5.488;2023-12-04T04:21:12;20.80;;;10.60;;
25439;SDS011;13365;52.208;5.488;2023-12-04T04:23:37;23.42;;;11.05;;
25439;SDS011;13365;52.208;5.488;2023-12-04T04:26:03;20.52;;;9.95;;
25439;SDS011;13365;52.208;5.488;2023-12-04T04:28:28;22.40;;;10.57;;
25439;SDS011;13365;52.208;5.488;2023-12-04T04:30:54;21.42;;;9.73;;
25439;SDS011;13365;52.208;5.488;2023-12-04T04:33:20;23.30;;;10.98;;
25439;SDS011;13365;52.208;5.488;2023-12-04T04:35:45;23.40;;;10.80;;
25439;SDS011;13365;52.208;5.488;2023-12-04T04:38:11;23.00;;;11.15;;
25439;SDS011;13365;52.208;5.488;2023-12-04T04:40:36;20.83;;;10.10;;
25439;SDS011;13365;52.208;5.488;2023-12-04T04:43:06;22.60;;;10.38;;
25439;SDS011;13365;52.208;5.488;2023-12-04T04:45:32;22.52;;;9.93;;
25439;SDS011;13365;52.208;5.488;2023-12-04T04:47:58;20.02;;;9.82;;
25439;SDS011;13365;52.208;5.488;2023-12-04T04:50:25;21.52;;;10.05;;
25439;SDS011;13365;52.208;5.488;2023-12-04T04:52:50;22.27;;;9.75;;
25439;SDS011;13365;52.208;5.488;2023-12-04T04:55:16;21.48;;;10.77;;
25439;SDS011;13365;52.208;5.488;2023-12-04T04:57:41;17.05;;;9.18;;
25439;SDS011;13365;52.208;5.488;2023-12-04T05:00:07;19.83;;;10.00;;
25439;SDS011;13365;52.208;5.488;2023-12-04T05:02:33;19.27;;;9.38;;
25439;SDS011;13365;52.208;5.488;2023-12-04T05:05:02;21.42;;;9.73;;
25439;SDS011;13365;52.208;5.488;2023-12-04T05:07:28;19.15;;;9.95;;
25439;SDS011;13365;52.208;5.488;2023-12-04T05:09:54;22.23;;;10.07;;
25439;SDS011;13365;52.208;5.488;2023-12-04T05:12:19;21.52;;;9.93;;
25439;SDS011;13365;52.208;5.488;2023-12-04T05:14:45;20.77;;;9.40;;
25439;SDS011;13365;52.208;5.488;2023-12-04T05:17:11;21.38;;;9.73;;
25439;SDS011;13365;52.208;5.488;2023-12-04T05:19:36;22.35;;;10.60;;
25439;SDS011;13365;52.208;5.488;2023-12-04T05:22:02;30.27;;;17.02;;
25439;SDS011;13365;52.208;5.488;2023-12-04T05:24:28;39.15;;;21.63;;
25439;SDS011;13365;52.208;5.488;2023-12-04T05:26:53;57.42;;;33.83;;
25439;SDS011;13365;52.208;5.488;2023-12-04T05:29:19;56.25;;;34.05;;
25439;SDS011;13365;52.208;5.488;2023-12-04T05:31:44;53.65;;;30.83;;
25439;SDS011;13365;52.208;5.488;2023-12-04T05:34:10;44.80;;;23.65;;
25439;SDS011;13365;52.208;5.488;2023-12-04T05:36:35;34.83;;;17.85;;
25439;SDS011;13365;52.208;5.488;2023-12-04T05:39:01;26.17;;;14.85;;
25439;SDS011;13365;52.208;5.488;2023-12-04T05:41:26;22.77;;;11.98;;
25439;SDS011;13365;52.208;5.488;2023-12-04T05:43:52;18.50;;;9.65;;
25439;SDS011;13365;52.208;5.488;2023-12-04T05:46:18;18.38;;;10.00;;
25439;SDS011;13365;52.208;5.488;2023-12-04T05:48:44;20.20;;;9.52;;
25439;SDS011;13365;52.208;5.488;2023-12-04T05:51:09;19.48;;;8.57;;
25439;SDS011;13365;52.208;5.488;2023-12-04T05:53:36;18.15;;;8.95;;
25439;SDS011;13365;52.208;5.488;2023-12-04T05:56:02;17.73;;;8.77;;
25439;SDS011;13365;52.208;5.488;2023-12-04T05:58:29;22.88;;;8.98;;
25439;SDS011;13365;52.208;5.488;2023-12-04T06:00:55;16.40;;;9.20;;
25439;SDS011;13365;52.208;5.488;2023-12-04T06:03:20;19.30;;;9.38;;
25439;SDS011;13365;52.208;5.488;2023-12-04T06:05:46;17.80;;;8.70;;
25439;SDS011;13365;52.208;5.488;2023-12-04T06:08:12;19.05;;;8.93;;
25439;SDS011;13365;52.208;5.488;2023-12-04T06:10:37;18.02;;;8.85;;
25439;SDS011;13365;52.208;5.488;2023-12-04T06:13:03;17.10;;;8.18;;
25439;SDS011;13365;52.208;5.488;2023-12-04T06:15:28;17.48;;;8.65;;
25439;SDS011;13365;52.208;5.488;2023-12-04T06:17:54;20.35;;;9.10;;
25439;SDS011;13365;52.208;5.488;2023-12-04T06:20:20;18.08;;;8.90;;
25439;SDS011;13365;52.208;5.488;2023-12-04T06:22:45;15.88;;;8.90;;
25439;SDS011;13365;52.208;5.488;2023-12-04T06:25:11;17.75;;;9.10;;
25439;SDS011;13365;52.208;5.488;2023-12-04T06:27:37;17.77;;;8.88;;
25439;SDS011;13365;52.208;5.488;2023-12-04T06:30:04;15.10;;;7.93;;
25439;SDS011;13365;52.208;5.488;2023-12-04T06:32:30;18.05;;;8.95;;
25439;SDS011;13365;52.208;5.488;2023-12-04T06:34:58;17.67;;;8.93;;
25439;SDS011;13365;52.208;5.488;2023-12-04T06:37:23;15.45;;;8.27;;
25439;SDS011;13365;52.208;5.488;2023-12-04T06:39:49;17.80;;;9.07;;
25439;SDS011;13365;52.208;5.488;2023-12-04T06:42:18;18.77;;;8.23;;
25439;SDS011;13365;52.208;5.488;2023-12-04T06:44:44;17.10;;;9.30;;
25439;SDS011;13365;52.208;5.488;2023-12-04T06:47:10;16.63;;;8.35;;
25439;SDS011;13365;52.208;5.488;2023-12-04T06:49:37;17.30;;;8.35;;
25439;SDS011;13365;52.208;5.488;2023-12-04T06:52:03;17.30;;;8.00;;
25439;SDS011;13365;52.208;5.488;2023-12-04T06:54:29;14.38;;;7.63;;
25439;SDS011;13365;52.208;5.488;2023-12-04T06:56:55;16.25;;;8.52;;
25439;SDS011;13365;52.208;5.488;2023-12-04T06:59:21;14.68;;;8.23;;
25439;SDS011;13365;52.208;5.488;2023-12-04T07:01:46;13.00;;;6.88;;
25439;SDS011;13365;52.208;5.488;2023-12-04T07:04:12;15.23;;;8.43;;
25439;SDS011;13365;52.208;5.488;2023-12-04T07:06:38;14.18;;;7.78;;
25439;SDS011;13365;52.208;5.488;2023-12-04T07:09:04;16.27;;;8.40;;
25439;SDS011;13365;52.208;5.488;2023-12-04T07:11:32;16.98;;;7.88;;
25439;SDS011;13365;52.208;5.488;2023-12-04T07:13:58;15.68;;;7.88;;
25439;SDS011;13365;52.208;5.488;2023-12-04T07:16:24;16.48;;;7.82;;
25439;SDS011;13365;52.208;5.488;2023-12-04T07:18:49;16.73;;;7.88;;
25439;SDS011;13365;52.208;5.488;2023-12-04T07:21:15;15.25;;;8.23;;
25439;SDS011;13365;52.208;5.488;2023-12-04T07:23:40;14.13;;;7.80;;
25439;SDS011;13365;52.208;5.488;2023-12-04T07:26:06;14.98;;;7.82;;
25439;SDS011;13365;52.208;5.488;2023-12-04T07:28:32;14.55;;;7.43;;
25439;SDS011;13365;52.208;5.488;2023-12-04T07:30:58;15.07;;;7.50;;
25439;SDS011;13365;52.208;5.488;2023-12-04T07:33:25;12.50;;;7.07;;
25439;SDS011;13365;52.208;5.488;2023-12-04T07:35:51;14.23;;;7.25;;
25439;SDS011;13365;52.208;5.488;2023-12-04T07:38:16;16.10;;;7.82;;
25439;SDS011;13365;52.208;5.488;2023-12-04T07:40:42;14.10;;;6.93;;
25439;SDS011;13365;52.208;5.488;2023-12-04T07:43:08;13.70;;;6.95;;
25439;SDS011;13365;52.208;5.488;2023-12-04T07:45:34;12.55;;;7.18;;
25439;SDS011;13365;52.208;5.488;2023-12-04T07:48:01;13.93;;;6.43;;
25439;SDS011;13365;52.208;5.488;2023-12-04T07:50:28;13.10;;;6.38;;
25439;SDS011;13365;52.208;5.488;2023-12-04T07:52:54;15.10;;;7.85;;
25439;SDS011;13365;52.208;5.488;2023-12-04T07:55:20;14.77;;;7.38;;
25439;SDS011;13365;52.208;5.488;2023-12-04T07:57:45;12.95;;;6.90;;
25439;SDS011;13365;52.208;5.488;2023-12-04T08:00:12;15.10;;;7.22;;
25439;SDS011;13365;52.208;5.488;2023-12-04T08:02:39;13.20;;;6.80;;
25439;SDS011;13365;52.208;5.488;2023-12-04T08:05:05;14.82;;;6.80;;
25439;SDS011;13365;52.208;5.488;2023-12-04T08:07:31;13.02;;;6.32;;
25439;SDS011;13365;52.208;5.488;2023-12-04T08:09:57;13.10;;;6.25;;
25439;SDS011;13365;52.208;5.488;2023-12-04T08:12:22;12.43;;;6.15;;
25439;SDS011;13365;52.208;5.488;2023-12-04T08:14:48;13.10;;;6.53;;
25439;SDS011;13365;52.208;5.488;2023-12-04T08:17:13;14.45;;;7.75;;
25439;SDS011;13365;52.208;5.488;2023-12-04T08:19:39;13.88;;;6.85;;
25439;SDS011;13365;52.208;5.488;2023-12-04T08:22:05;13.35;;;6.68;;
25439;SDS011;13365;52.208;5.488;2023-12-04T08:24:30;13.52;;;6.68;;
25439;SDS011;13365;52.208;5.488;2023-12-04T08:26:56;11.25;;;6.03;;
25439;SDS011;13365;52.208;5.488;2023-12-04T08:29:22;12.70;;;6.68;;
25439;SDS011;13365;52.208;5.488;2023-12-04T08:31:48;13.88;;;6.47;;
25439;SDS011;13365;52.208;5.488;2023-12-04T08:34:13;13.05;;;6.13;;
25439;SDS011;13365;52.208;5.488;2023-12-04T08:36:39;14.57;;;6.13;;
25439;SDS011;13365;52.208;5.488;2023-12-04T08:39:04;12.40;;;6.00;;
25439;SDS011;13365;52.208;5.488;2023-12-04T08:41:30;10.93;;;5.80;;
25439;SDS011;13365;52.208;5.488;2023-12-04T08:43:55;12.35;;;6.38;;
25439;SDS011;13365;52.208;5.488;2023-12-04T08:46:21;10.88;;;5.68;;
25439;SDS011;13365;52.208;5.488;2023-12-04T08:48:47;13.10;;;5.43;;
25439;SDS011;13365;52.208;5.488;2023-12-04T08:51:16;15.15;;;6.47;;
25439;SDS011;13365;52.208;5.488;2023-12-04T08:53:42;12.95;;;6.28;;
25439;SDS011;13365;52.208;5.488;2023-12-04T08:56:08;13.70;;;7.05;;
25439;SDS011;13365;52.208;5.488;2023-12-04T08:58:34;13.43;;;5.95;;
25439;SDS011;13365;52.208;5.488;2023-12-04T09:00:59;10.38;;;5.88;;
25439;SDS011;13365;52.208;5.488;2023-12-04T09:03:25;14.13;;;6.60;;
25439;SDS011;13365;52.208;5.488;2023-12-04T09:05:50;10.80;;;6.07;;
25439;SDS011;13365;52.208;5.488;2023-12-04T09:08:17;12.13;;;5.78;;
25439;SDS011;13365;52.208;5.488;2023-12-04T09:10:44;11.88;;;5.85;;
25439;SDS011;13365;52.208;5.488;2023-12-04T09:13:10;12.68;;;6.10;;
25439;SDS011;13365;52.208;5.488;2023-12-04T09:15:36;11.95;;;5.80;;
25439;SDS011;13365;52.208;5.488;2023-12-04T09:18:02;11.13;;;5.90;;
25439;SDS011;13365;52.208;5.488;2023-12-04T09:20:27;10.65;;;5.80;;
25439;SDS011;13365;52.208;5.488;2023-12-04T09:22:53;11.63;;;6.10;;
25439;SDS011;13365;52.208;5.488;2023-12-04T09:25:19;9.48;;;5.50;;
25439;SDS011;13365;52.208;5.488;2023-12-04T09:27:44;11.30;;;5.70;;
25439;SDS011;13365;52.208;5.488;2023-12-04T09:30:11;11.18;;;6.03;;
25439;SDS011;13365;52.208;5.488;2023-12-04T09:32:37;11.80;;;6.35;;
25439;SDS011;13365;52.208;5.488;2023-12-04T09:35:02;9.98;;;5.43;;
25439;SDS011;13365;52.208;5.488;2023-12-04T09:37:28;10.68;;;5.45;;
25439;SDS011;13365;52.208;5.488;2023-12-04T09:39:54;12.68;;;6.15;;
25439;SDS011;13365;52.208;5.488;2023-12-04T09:42:19;12.52;;;6.30;;
25439;SDS011;13365;52.208;5.488;2023-12-04T09:44:46;9.35;;;5.60;;
25439;SDS011;13365;52.208;5.488;2023-12-04T09:47:13;12.63;;;5.78;;
25439;SDS011;13365;52.208;5.488;2023-12-04T09:49:40;10.75;;;5.43;;
25439;SDS011;13365;52.208;5.488;2023-12-04T09:52:05;9.65;;;5.28;;
25439;SDS011;13365;52.208;5.488;2023-12-04T09:54:31;12.25;;;6.13;;
25439;SDS011;13365;52.208;5.488;2023-12-04T09:57:00;11.27;;;5.70;;
25439;SDS011;13365;52.208;5.488;2023-12-04T09:59:26;12.00;;;5.90;;
25439;SDS011;13365;52.208;5.488;2023-12-04T10:01:54;10.85;;;4.57;;
25439;SDS011;13365;52.208;5.488;2023-12-04T10:04:21;11.32;;;5.43;;
25439;SDS011;13365;52.208;5.488;2023-12-04T10:06:49;9.98;;;5.20;;
25439;SDS011;13365;52.208;5.488;2023-12-04T10:09:16;11.35;;;6.20;;
25439;SDS011;13365;52.208;5.488;2023-12-04T10:11:44;11.60;;;5.43;;
25439;SDS011;13365;52.208;5.488;2023-12-04T10:14:16;8.80;;;4.90;;
25439;SDS011;13365;52.208;5.488;2023-12-04T10:16:43;9.32;;;5.05;;
25439;SDS011;13365;52.208;5.488;2023-12-04T10:19:16;10.75;;;5.68;;
25439;SDS011;13365;52.208;5.488;2023-12-04T10:21:43;9.40;;;5.28;;
25439;SDS011;13365;52.208;5.488;2023-12-04T10:24:09;10.43;;;5.28;;
25439;SDS011;13365;52.208;5.488;2023-12-04T10:26:35;10.38;;;5.10;;
25439;SDS011;13365;52.208;5.488;2023-12-04T10:29:01;10.23;;;5.07;;
25439;SDS011;13365;52.208;5.488;2023-12-04T10:31:34;9.48;;;4.93;;
25439;SDS011;13365;52.208;5.488;2023-12-04T10:34:01;10.05;;;5.07;;
25439;SDS011;13365;52.208;5.488;2023-12-04T10:36:27;8.52;;;4.50;;
25439;SDS011;13365;52.208;5.488;2023-12-04T10:38:59;9.32;;;4.75;;
25439;SDS011;13365;52.208;5.488;2023-12-04T10:41:26;9.18;;;4.75;;
25439;SDS011;13365;52.208;5.488;2023-12-04T10:43:52;7.78;;;4.15;;
25439;SDS011;13365;52.208;5.488;2023-12-04T10:46:20;9.00;;;4.38;;
25439;SDS011;13365;52.208;5.488;2023-12-04T10:48:47;9.27;;;4.97;;
25439;SDS011;13365;52.208;5.488;2023-12-04T10:51:13;11.23;;;5.20;;
25439;SDS011;13365;52.208;5.488;2023-12-04T10:53:42;10.13;;;5.53;;
25439;SDS011;13365;52.208;5.488;2023-12-04T10:56:14;8.73;;;4.47;;
25439;SDS011;13365;52.208;5.488;2023-12-04T10:58:47;8.80;;;5.43;;
25439;SDS011;13365;52.208;5.488;2023-12-04T11:01:16;10.10;;;5.33;;
25439;SDS011;13365;52.208;5.488;2023-12-04T11:03:44;9.98;;;5.28;;
25439;SDS011;13365;52.208;5.488;2023-12-04T11:06:12;8.38;;;4.70;;
25439;SDS011;13365;52.208;5.488;2023-12-04T11:08:42;9.13;;;4.95;;
25439;SDS011;13365;52.208;5.488;2023-12-04T11:11:09;9.95;;;5.20;;
25439;SDS011;13365;52.208;5.488;2023-12-04T11:13:39;11.85;;;5.68;;
25439;SDS011;13365;52.208;5.488;2023-12-04T11:16:15;9.70;;;5.20;;
25439;SDS011;13365;52.208;5.488;2023-12-04T11:19:06;11.88;;;6.10;;
25439;SDS011;13365;52.208;5.488;2023-12-04T11:21:39;11.90;;;5.15;;
25439;SDS011;13365;52.208;5.488;2023-12-04T11:24:06;12.13;;;6.18;;
25439;SDS011;13365;52.208;5.488;2023-12-04T11:26:33;11.48;;;5.72;;
25439;SDS011;13365;52.208;5.488;2023-12-04T11:28:59;12.02;;;6.22;;
25439;SDS011;13365;52.208;5.488;2023-12-04T11:31:25;11.38;;;6.32;;
25439;SDS011;13365;52.208;5.488;2023-12-04T11:33:51;14.48;;;6.90;;
25439;SDS011;13365;52.208;5.488;2023-12-04T11:36:17;15.57;;;6.20;;
25439;SDS011;13365;52.208;5.488;2023-12-04T11:38:43;14.50;;;6.47;;
25439;SDS011;13365;52.208;5.488;2023-12-04T11:41:14;13.65;;;6.88;;
25439;SDS011;13365;52.208;5.488;2023-12-04T11:43:47;10.75;;;6.35;;
25439;SDS011;13365;52.208;5.488;2023-12-04T11:46:13;12.70;;;6.88;;
25439;SDS011;13365;52.208;5.488;2023-12-04T11:48:45;13.23;;;7.40;;
25439;SDS011;13365;52.208;5.488;2023-12-04T11:51:12;12.60;;;6.22;;
25439;SDS011;13365;52.208;5.488;2023-12-04T11:53:58;10.27;;;6.15;;
25439;SDS011;13365;52.208;5.488;2023-12-04T11:56:24;11.55;;;6.47;;
25439;SDS011;13365;52.208;5.488;2023-12-04T11:58:50;12.98;;;6.80;;
25439;SDS011;13365;52.208;5.488;2023-12-04T12:01:17;12.07;;;6.97;;
25439;SDS011;13365;52.208;5.488;2023-12-04T12:03:43;13.63;;;7.38;;
25439;SDS011;13365;52.208;5.488;2023-12-04T12:06:09;11.98;;;6.35;;
25439;SDS011;13365;52.208;5.488;2023-12-04T12:08:34;14.02;;;6.55;;
25439;SDS011;13365;52.208;5.488;2023-12-04T12:11:00;12.65;;;7.30;;
25439;SDS011;13365;52.208;5.488;2023-12-04T12:13:27;13.77;;;7.15;;
25439;SDS011;13365;52.208;5.488;2023-12-04T12:15:53;12.68;;;7.13;;
25439;SDS011;13365;52.208;5.488;2023-12-04T12:18:18;13.68;;;7.13;;
25439;SDS011;13365;52.208;5.488;2023-12-04T12:20:44;13.82;;;7.20;;
25439;SDS011;13365;52.208;5.488;2023-12-04T12:23:09;15.18;;;7.95;;
25439;SDS011;13365;52.208;5.488;2023-12-04T12:25:35;15.77;;;7.47;;
25439;SDS011;13365;52.208;5.488;2023-12-04T12:28:04;12.88;;;6.97;;
25439;SDS011;13365;52.208;5.488;2023-12-04T12:30:30;14.63;;;7.47;;
25439;SDS011;13365;52.208;5.488;2023-12-04T12:32:55;11.65;;;6.63;;
25439;SDS011;13365;52.208;5.488;2023-12-04T12:35:22;15.20;;;7.22;;
25439;SDS011;13365;52.208;5.488;2023-12-04T12:37:48;15.77;;;7.25;;
25439;SDS011;13365;52.208;5.488;2023-12-04T12:40:18;11.43;;;6.65;;
25439;SDS011;13365;52.208;5.488;2023-12-04T12:42:45;12.45;;;6.90;;
25439;SDS011;13365;52.208;5.488;2023-12-04T12:45:10;16.67;;;7.72;;
25439;SDS011;13365;52.208;5.488;2023-12-04T12:47:37;15.27;;;7.20;;
25439;SDS011;13365;52.208;5.488;2023-12-04T12:50:03;11.35;;;6.53;;
25439;SDS011;13365;52.208;5.488;2023-12-04T12:52:32;14.35;;;6.28;;
25439;SDS011;13365;52.208;5.488;2023-12-04T12:54:58;11.73;;;6.57;;
25439;SDS011;13365;52.208;5.488;2023-12-04T12:57:24;17.27;;;7.93;;
25439;SDS011;13365;52.208;5.488;2023-12-04T12:59:50;15.07;;;7.05;;
25439;SDS011;13365;52.208;5.488;2023-12-04T13:02:16;13.10;;;6.85;;
25439;SDS011;13365;52.208;5.488;2023-12-04T13:04:42;15.70;;;7.75;;
25439;SDS011;13365;52.208;5.488;2023-12-04T13:07:09;14.00;;;7.00;;
25439;SDS011;13365;52.208;5.488;2023-12-04T13:09:35;14.95;;;7.50;;
25439;SDS011;13365;52.208;5.488;2023-12-04T13:12:02;12.57;;;6.45;;
25439;SDS011;13365;52.208;5.488;2023-12-04T13:14:29;12.18;;;7.07;;
25439;SDS011;13365;52.208;5.488;2023-12-04T13:16:54;13.35;;;6.78;;
25439;SDS011;13365;52.208;5.488;2023-12-04T13:19:21;13.57;;;6.68;;
25439;SDS011;13365;52.208;5.488;2023-12-04T13:21:49;15.15;;;7.47;;
25439;SDS011;13365;52.208;5.488;2023-12-04T13:24:15;11.75;;;6.15;;
25439;SDS011;13365;52.208;5.488;2023-12-04T13:26:42;14.80;;;7.03;;
25439;SDS011;13365;52.208;5.488;2023-12-04T13:29:08;12.45;;;6.43;;
25439;SDS011;13365;52.208;5.488;2023-12-04T13:31:34;12.23;;;6.28;;
25439;SDS011;13365;52.208;5.488;2023-12-04T13:33:59;13.30;;;6.82;;
25439;SDS011;13365;52.208;5.488;2023-12-04T13:36:25;18.70;;;7.03;;
25439;SDS011;13365;52.208;5.488;2023-12-04T13:38:52;11.85;;;6.07;;
25439;SDS011;13365;52.208;5.488;2023-12-04T13:41:18;13.13;;;6.53;;
25439;SDS011;13365;52.208;5.488;2023-12-04T13:44:04;11.95;;;6.45;;
25439;SDS011;13365;52.208;5.488;2023-12-04T13:46:29;13.52;;;6.57;;
25439;SDS011;13365;52.208;5.488;2023-12-04T13:48:56;13.48;;;7.20;;
25439;SDS011;13365;52.208;5.488;2023-12-04T13:51:22;11.45;;;6.55;;
25439;SDS011;13365;52.208;5.488;2023-12-04T13:53:48;14.07;;;7.15;;
25439;SDS011;13365;52.208;5.488;2023-12-04T13:56:15;13.60;;;7.30;;
25439;SDS011;13365;52.208;5.488;2023-12-04T13:58:59;12.73;;;6.82;;
25439;SDS011;13365;52.208;5.488;2023-12-04T14:01:27;11.02;;;6.30;;
25439;SDS011;13365;52.208;5.488;2023-12-04T14:03:54;13.18;;;6.53;;
25439;SDS011;13365;52.208;5.488;2023-12-04T14:06:30;14.35;;;6.57;;
25439;SDS011;13365;52.208;5.488;2023-12-04T14:08:56;14.02;;;7.00;;
25439;SDS011;13365;52.208;5.488;2023-12-04T14:11:22;16.17;;;6.78;;
25439;SDS011;13365;52.208;5.488;2023-12-04T14:13:48;12.68;;;6.32;;
25439;SDS011;13365;52.208;5.488;2023-12-04T14:16:14;14.52;;;7.38;;
25439;SDS011;13365;52.208;5.488;2023-12-04T14:18:41;14.30;;;6.80;;
25439;SDS011;13365;52.208;5.488;2023-12-04T14:21:07;14.95;;;6.28;;
25439;SDS011;13365;52.208;5.488;2023-12-04T14:23:33;11.88;;;6.55;;
25439;SDS011;13365;52.208;5.488;2023-12-04T14:25:59;14.30;;;7.03;;